Nearby METAR Reports

 

KPRB - Paso Robles, California, USA
Distance from station: SW 1mi, 1km
Updated: 03/02/2015 8:07am
Overcast
Overcast
 Wind from calm
Wind: Calm
Temperature: 43°F , 6°C
Dew Point: 39°F , 4°C
Humidity: 87%
Barometer: 29.89 inHg , 1012.2 hPa
Clouds: Overcast
Visibility: 10 miles , 16 km
Cloud details: Partly cloudy 200 ft
Mostly cloudy 1200 ft
Overcast 9000 ft
2015/03/02 16:07 KPRB 021607Z AUTO 00000KT 10SM SCT002 BKN012 OVC090 06/04 A2989 RMK AO2 T00560044 TSNO $
KSBP - San Luis Obispo, California, USA
Distance from station: S 30mi, 49km
Updated: 03/02/2015 7:56am
Overcast
Overcast
 Wind from calm
Wind: Calm
Temperature: 43°F , 6°C
Dew Point: 43°F , 6°C
Humidity: 100%
Barometer: 29.91 inHg , 1012.9 hPa
Clouds: Overcast
Visibility: 10 miles , 16 km
Cloud details: Mostly cloudy 2100 ft
Overcast 8000 ft
2015/03/02 15:56 KSBP 021556Z 00000KT 10SM BKN021 OVC080 06/06 A2991 RMK AO2 SLP128 T00560056
 
KSMX - Santa Maria, California, USA
Distance from station: S 54mi, 87km
Updated: 03/02/2015 7:51am
Mostly cloudy
Mostly cloudy
 Wind from S
Wind: S 3 mph , 6 km/h
Temperature: 46°F , 8°C
Dew Point: 43°F , 6°C
Humidity: 87%
Barometer: 29.90 inHg , 1012.5 hPa
Clouds: Mostly cloudy
Visibility: 10 miles , 16 km
Cloud details: Mostly cloudy 2300 ft
2015/03/02 15:51 KSMX 021551Z 18003KT 10SM BKN023 08/06 A2990 RMK AO2 SLP131 T00830056
KNLC - Lemoore Nas/Reev, California, USA
Distance from station: NE 58mi, 94km
Updated: 03/02/2015 7:56am
Mostly cloudy
Mostly cloudy
 Wind from SSE
Wind: SSE 15 mph , 24 km/h
Temperature: 48°F , 9°C
Wind Chill: 42°F , 6°C
Dew Point: 45°F , 7°C
Humidity: 87%
Barometer: 29.87 inHg , 1011.5 hPa
Clouds: Mostly cloudy
Visibility: 10 miles , 16 km
Cloud details: Partly cloudy 5000 ft
Mostly cloudy 7500 ft
Mostly cloudy 10000 ft
Mostly cloudy 21000 ft
2015/03/02 15:56 KNLC 021556Z 15013KT 10SM SCT050 BKN075 BKN100 BKN210 09/07 A2987 RMK AO2 SLP116 VCSH ALQDS RH/86 T00940072
 
KVBG - Vandenberg Afb, California, USA
Distance from station: S 65mi, 105km
Updated: 03/02/2015 7:55am
Mostly cloudy
Mostly cloudy
 Wind from ESE
Wind: ESE 10 mph , 17 km/h
Temperature: 46°F , 8°C
Wind Chill: 41°F , 5°C
Dew Point: 41°F , 5°C
Humidity: 82%
Barometer: 29.91 inHg , 1012.9 hPa
Clouds: Mostly cloudy
Visibility: 10 miles , 16 km
Cloud details: Partly cloudy 1800 ft
Mostly cloudy 2500 ft
Mostly cloudy 5500 ft
2015/03/02 15:55 KVBG 021555Z 12009KT 10SM SCT018 BKN025CB BKN055 08/05 A2991 RMK AO2 SLP122 CB DSNT SW T00780050 $
KLPC - Lompoc, California, USA
Distance from station: S 70mi, 113km
Updated: 03/02/2015 8:15am
Mostly cloudy
Mostly cloudy
 Wind from ESE
Wind: ESE 6 mph , 9 km/h
Temperature: 45°F , 7°C
Wind Chill: 42°F , 6°C
Dew Point: 37°F , 3°C
Humidity: 76%
Barometer: 29.92 inHg , 1013.2 hPa
Clouds: Mostly cloudy
Visibility: 10 miles , 16 km
Cloud details: Mostly cloudy 5500 ft
2015/03/02 16:15 KLPC 021615Z AUTO 12005KT 10SM BKN055 07/03 A2992 RMK AO1 LTG DSNT SW
 
KHJO - Hanford, California, USA
Distance from station: NE 72mi, 116km
Updated: 03/02/2015 7:53am
Light rain, Overcast
Light rain, Overcast
 Wind from SE
Wind: SE 8 mph , 13 km/h
Temperature: 48°F , 9°C
Wind Chill: 44°F , 7°C
Dew Point: 46°F , 8°C
Humidity: 94%
Barometer: 29.87 inHg , 1011.5 hPa
Summary: Light rain
Clouds: Overcast
Visibility: 7 miles , 11 km
Cloud details: Overcast 5500 ft
2015/03/02 15:53 KHJO 021553Z AUTO 14007KT 7SM -RA OVC055 09/08 A2987 RMK AO2 RAB17 SLP119 P0001 T00890078